Time;durP1;ratioP1;P1;durP2;ratioP2;P2;SDS_P1;SDS_P2;PMS_P1;PMS_P2;Temp;Humidity;BMP_temperature;BMP_pressure;BME280_temperature;BME280_humidity;BME280_pressure;Samples;Min_cycle;Max_cycle;Signal;HPM_P1;HPM_P2
2022/12/12 00:00:34;;;;;;;;;;;;;;;9.15;72.85;93884.25;5034175;28;1048;-67
2022/12/12 00:03:00;;;;;;;;;;;;;;;9.23;73.46;93881.47;5034023;28;966;-67
2022/12/12 00:05:26;;;;;;;;;;;;;;;9.19;74.28;93882.88;5033681;28;1998;-67
2022/12/12 00:07:52;;;;;;;;;;;;;;;9.18;74.15;93892.72;5034105;28;1042;-67
2022/12/12 00:10:18;;;;;;;;;;;;;;;9.31;73.58;93901.91;5033825;28;1105;-66
2022/12/12 00:12:44;;;;;;;;;;;;;;;9.28;73.34;93900.44;5033800;28;1016;-66
2022/12/12 00:15:10;;;;;;;;;;;;;;;9.26;73.62;93901.63;5033822;28;1183;-66
2022/12/12 00:17:37;;;;;;;;;;;;;;;9.23;73.10;93896.66;5033581;28;1013;-66
2022/12/12 00:20:03;;;;;;;;;;;;;;;9.06;74.20;93904.00;5033940;28;971;-67
2022/12/12 00:22:29;;;;;;;;;;;;;;;8.67;76.00;93903.22;5033559;28;1109;-67
2022/12/12 00:24:55;;;;;;;;;;;;;;;8.77;75.23;93897.63;5033461;28;1983;-67
2022/12/12 00:27:21;;;;;;;;;;;;;;;8.94;73.15;93904.44;5016254;28;970;-66
2022/12/12 00:29:54;;;;;;;;;;;;;;;8.90;73.88;93892.50;5033555;28;1002;-67
2022/12/12 00:32:20;;;;;;;;;;;;;;;9.02;72.95;93911.53;5033463;28;1040;-67
2022/12/12 00:34:46;;;;;;;;;;;;;;;9.07;73.07;93911.81;5016185;28;1025;-67
2022/12/12 00:37:12;;;;;;;;;;;;;;;9.01;73.08;93917.91;5033289;28;1041;-67
2022/12/12 00:39:38;;;;;;;;;;;;;;;8.95;73.14;93910.59;5004843;28;1231;-66
2022/12/12 00:42:04;;;;;;;;;;;;;;;8.87;71.46;93908.84;5013681;28;1047;-67
2022/12/12 00:44:30;;;;;;;;;;;;;;;8.70;71.12;93924.16;5013592;28;1898;-67
2022/12/12 00:46:56;;;;;;;;;;;;;;;8.62;73.12;93928.72;5013594;28;1125;-66
2022/12/12 00:49:22;;;;;;;;;;;;;;;8.36;74.01;93928.03;5013865;28;994;-67
2022/12/12 00:51:51;;;;;;;;;;;;;;;8.25;74.67;93917.78;5013793;28;1356;-66
2022/12/12 00:54:17;;;;;;;;;;;;;;;8.42;73.55;93921.19;5013740;28;1054;-66
2022/12/12 00:56:44;;;;;;;;;;;;;;;8.37;73.74;93920.91;4996175;28;1137;-67
2022/12/12 00:59:11;;;;;;;;;;;;;;;8.37;73.85;93926.22;5013567;28;992;-67
2022/12/12 01:01:37;;;;;;;;;;;;;;;8.27;74.17;93923.81;4996003;28;1061;-67
2022/12/12 01:04:03;;;;;;;;;;;;;;;8.35;73.75;93915.75;5013284;28;1101;-67
2022/12/12 01:06:30;;;;;;;;;;;;;;;8.14;73.53;93921.72;5013484;28;1930;-66
2022/12/12 01:08:56;;;;;;;;;;;;;;;8.19;74.06;93939.81;5013559;28;1046;-67
2022/12/12 01:11:22;;;;;;;;;;;;;;;8.31;73.50;93935.75;5013537;28;985;-67
2022/12/12 01:13:49;;;;;;;;;;;;;;;8.38;70.97;93943.84;5013385;28;966;-67
2022/12/12 01:16:16;;;;;;;;;;;;;;;8.34;70.71;93938.03;5013311;28;1661;-67
2022/12/12 01:18:42;;;;;;;;;;;;;;;8.30;71.03;93933.25;4996155;28;970;-67
2022/12/12 01:21:09;;;;;;;;;;;;;;;8.13;71.14;93940.53;5013300;28;1213;-67
2022/12/12 01:23:35;;;;;;;;;;;;;;;7.96;72.30;93937.13;5013400;28;962;-67
2022/12/12 01:26:02;;;;;;;;;;;;;;;7.98;73.13;93941.25;5013197;28;1914;-67
2022/12/12 01:28:28;;;;;;;;;;;;;;;7.96;73.12;93948.59;5013186;28;1062;-67
2022/12/12 01:30:54;;;;;;;;;;;;;;;7.93;73.35;93948.09;5013256;28;1029;-67
2022/12/12 01:33:21;;;;;;;;;;;;;;;8.17;70.98;93945.31;5013468;28;872;-67
2022/12/12 01:35:47;;;;;;;;;;;;;;;8.19;71.46;93953.97;5013385;28;982;-67
2022/12/12 01:38:13;;;;;;;;;;;;;;;8.20;71.20;93949.47;5013297;28;1029;-66
2022/12/12 01:40:39;;;;;;;;;;;;;;;8.11;69.72;93945.19;5032436;28;1580;-67
2022/12/12 01:43:09;;;;;;;;;;;;;;;7.85;69.56;93959.63;5015379;28;1047;-67
2022/12/12 01:45:53;;;;;;;;;;;;;;;7.80;70.10;93970.78;5032724;28;1991;-66
2022/12/12 01:48:21;;;;;;;;;;;;;;;7.84;70.12;93973.94;5034738;28;1028;-67
2022/12/12 01:50:47;;;;;;;;;;;;;;;7.48;72.09;93986.88;5036586;28;1068;-67
2022/12/12 01:53:15;;;;;;;;;;;;;;;7.46;72.80;93981.72;5036497;28;1022;-66
2022/12/12 01:55:41;;;;;;;;;;;;;;;7.56;70.47;93984.19;5036339;28;1033;-66
2022/12/12 01:58:07;;;;;;;;;;;;;;;7.66;71.25;93994.63;5036322;28;1257;-66
2022/12/12 02:00:34;;;;;;;;;;;;;;;7.62;72.00;94002.13;5036294;28;1577;-67
2022/12/12 02:03:00;;;;;;;;;;;;;;;7.70;72.23;93987.97;5036452;28;1065;-66
2022/12/12 02:05:32;;;;;;;;;;;;;;;7.75;72.44;93989.09;5035951;28;1910;-67
2022/12/12 02:08:00;;;;;;;;;;;;;;;7.88;71.78;93996.53;5036300;28;973;-66
2022/12/12 02:10:26;;;;;;;;;;;;;;;8.01;71.46;93988.81;5035979;28;1054;-67
2022/12/12 02:12:59;;;;;;;;;;;;;;;8.11;71.29;93985.13;5036028;28;1105;-67
2022/12/12 02:15:28;;;;;;;;;;;;;;;8.10;71.35;93994.09;5036194;28;1024;-67
2022/12/12 02:18:14;;;;;;;;;;;;;;;7.96;72.54;93995.66;5035926;28;1125;-67
2022/12/12 02:20:43;;;;;;;;;;;;;;;8.08;72.30;93985.47;4995819;28;1201;-67
2022/12/12 02:23:15;;;;;;;;;;;;;;;8.23;72.07;93982.88;5035809;28;1128;-67
2022/12/12 02:26:00;;;;;;;;;;;;;;;8.07;72.89;93989.97;5035727;28;1906;-66
2022/12/12 02:28:45;;;;;;;;;;;;;;;7.91;73.61;93992.69;5018383;28;979;-66
2022/12/12 02:31:11;;;;;;;;;;;;;;;7.88;74.81;93999.19;5018280;28;1065;-66
2022/12/12 02:33:37;;;;;;;;;;;;;;;8.08;72.68;94004.09;5035599;28;1032;-67
2022/12/12 02:36:09;;;;;;;;;;;;;;;8.01;73.67;93996.81;5035601;28;1038;-67
2022/12/12 02:38:53;;;;;;;;;;;;;;;8.03;73.45;94001.97;5032982;28;1147;-67
2022/12/12 02:41:19;;;;;;;;;;;;;;;8.00;74.29;94007.63;5015841;28;1028;-67
2022/12/12 02:43:48;;;;;;;;;;;;;;;8.06;74.60;93998.13;5015630;28;994;-67
2022/12/12 02:46:37;;;;;;;;;;;;;;;7.96;75.14;93995.66;5015858;28;1914;-67
2022/12/12 02:49:08;;;;;;;;;;;;;;;8.23;75.02;93997.03;5015591;28;1047;-67
2022/12/12 02:51:35;;;;;;;;;;;;;;;8.46;74.24;93996.25;5015513;28;1041;-67
2022/12/12 02:54:10;;;;;;;;;;;;;;;8.21;74.05;93996.38;5015530;28;1042;-66
2022/12/12 02:56:51;;;;;;;;;;;;;;;8.27;73.89;94001.03;5015350;28;1037;-67
2022/12/12 02:59:25;;;;;;;;;;;;;;;8.35;74.70;93994.81;5015242;28;1070;-66
2022/12/12 03:01:54;;;;;;;;;;;;;;;8.28;75.03;94004.50;4997990;28;1125;-67
2022/12/12 03:10:11;;;;;;;;;;;;;;;8.14;76.81;93998.91;5015431;28;986;-66
2022/12/12 03:12:40;;;;;;;;;;;;;;;8.12;77.59;94000.94;5015199;28;984;-66
2022/12/12 03:15:15;;;;;;;;;;;;;;;8.27;77.71;94000.16;5015152;28;1054;-66
2022/12/12 03:17:45;;;;;;;;;;;;;;;8.30;78.29;93998.00;5015262;28;985;-67
2022/12/12 03:20:18;;;;;;;;;;;;;;;8.30;78.35;94000.66;5015238;28;1616;-66
2022/12/12 03:22:44;;;;;;;;;;;;;;;8.25;78.04;94015.50;5014976;28;1057;-66
2022/12/12 03:25:10;;;;;;;;;;;;;;;8.14;78.44;94014.91;5014901;28;1918;-66
2022/12/12 03:27:39;;;;;;;;;;;;;;;8.38;78.55;94005.94;5014818;28;1057;-66
2022/12/12 03:30:13;;;;;;;;;;;;;;;8.46;77.44;94015.75;5014825;28;998;-66
2022/12/12 03:32:45;;;;;;;;;;;;;;;8.28;78.21;94013.31;5014980;28;1045;-66
2022/12/12 03:35:27;;;;;;;;;;;;;;;8.33;78.50;94021.63;5014936;28;1053;-66
2022/12/12 03:38:15;;;;;;;;;;;;;;;8.36;78.43;94015.09;5014779;28;1072;-66
2022/12/12 03:40:44;;;;;;;;;;;;;;;8.32;77.81;94011.13;5034552;28;1175;-66
2022/12/12 03:43:13;;;;;;;;;;;;;;;8.30;77.82;94024.63;5034592;28;1247;-65
2022/12/12 03:46:02;;;;;;;;;;;;;;;8.35;76.60;94022.28;5034174;28;1910;-65
2022/12/12 03:48:29;;;;;;;;;;;;;;;8.34;75.56;94028.59;5023761;28;1190;-66
2022/12/12 03:51:14;;;;;;;;;;;;;;;8.37;76.18;94030.91;5034214;28;997;-66
2022/12/12 03:53:43;;;;;;;;;;;;;;;8.38;75.94;94029.06;5034054;28;1101;-65
2022/12/12 03:56:14;;;;;;;;;;;;;;;8.43;77.66;94029.41;5034279;28;979;-66
2022/12/12 03:58:40;;;;;;;;;;;;;;;8.39;77.48;94026.25;5016492;28;1034;-66
2022/12/12 04:01:09;;;;;;;;;;;;;;;8.38;78.12;94032.59;5016601;28;1057;-66
2022/12/12 04:03:50;;;;;;;;;;;;;;;8.38;77.44;94037.06;5017078;28;1114;-66
2022/12/12 04:06:26;;;;;;;;;;;;;;;8.06;79.01;94046.84;5034096;28;1911;-66
2022/12/12 04:14:52;;;;;;;;;;;;;;;8.27;79.69;94051.63;5020069;28;1129;-68
2022/12/12 04:17:23;;;;;;;;;;;;;;;8.28;79.75;94045.28;5033868;28;1050;-67
2022/12/12 04:23:16;;;;;;;;;;;;;;;7.98;79.60;94036.25;5019880;28;1068;-68
2022/12/12 04:28:35;;;;;;;;;;;;;;;7.98;79.61;94046.91;5033537;28;1041;-67
2022/12/12 04:31:03;;;;;;;;;;;;;;;8.03;80.67;94049.88;5033612;28;1042;-67
2022/12/12 04:33:35;;;;;;;;;;;;;;;8.05;79.92;94052.38;5033709;28;1013;-67
2022/12/12 04:36:02;;;;;;;;;;;;;;;8.00;80.43;94059.03;5033567;28;1081;-67
2022/12/12 04:38:29;;;;;;;;;;;;;;;7.96;80.58;94062.22;5031727;28;1159;-67
2022/12/12 04:40:57;;;;;;;;;;;;;;;8.05;82.78;94058.53;5012561;28;1054;-67
2022/12/12 04:43:27;;;;;;;;;;;;;;;8.12;81.41;94056.84;5013706;28;1042;-67
2022/12/12 04:46:00;;;;;;;;;;;;;;;8.14;79.67;94064.66;5013847;28;1914;-67
2022/12/12 04:48:32;;;;;;;;;;;;;;;8.16;80.58;94054.66;5013833;28;984;-68
2022/12/12 04:51:00;;;;;;;;;;;;;;;8.10;81.66;94061.50;5013816;28;1102;-68
2022/12/12 04:53:30;;;;;;;;;;;;;;;8.11;79.29;94072.97;5013590;28;961;-68
2022/12/12 04:55:58;;;;;;;;;;;;;;;8.05;79.87;94071.00;5013855;28;1111;-68
2022/12/12 04:58:26;;;;;;;;;;;;;;;8.12;81.08;94072.81;5013564;28;1033;-68
2022/12/12 05:00:56;;;;;;;;;;;;;;;8.17;79.96;94069.63;5013532;28;1049;-67
2022/12/12 05:03:33;;;;;;;;;;;;;;;8.15;80.69;94069.78;5013363;28;1130;-68
2022/12/12 05:06:01;;;;;;;;;;;;;;;8.17;80.29;94069.63;5013403;28;1910;-68
2022/12/12 05:08:30;;;;;;;;;;;;;;;8.14;80.57;94075.31;5013618;28;1014;-68
2022/12/12 05:10:59;;;;;;;;;;;;;;;8.11;80.40;94073.78;5013605;28;956;-67
2022/12/12 05:13:29;;;;;;;;;;;;;;;8.21;81.43;94079.78;5013368;28;1054;-67
2022/12/12 05:15:56;;;;;;;;;;;;;;;8.28;82.08;94077.22;5013426;28;1117;-72
2022/12/12 05:18:23;;;;;;;;;;;;;;;8.20;79.52;94071.94;5013574;28;1637;-66
2022/12/12 05:20:49;;;;;;;;;;;;;;;7.89;81.15;94077.19;5013247;28;1121;-69
2022/12/12 05:23:15;;;;;;;;;;;;;;;7.71;80.94;94077.44;5016931;28;993;-68
2022/12/12 05:25:41;;;;;;;;;;;;;;;7.76;80.94;94083.91;5017219;28;1910;-66
2022/12/12 05:28:07;;;;;;;;;;;;;;;7.67;81.60;94087.56;4999796;28;1054;-68
2022/12/12 05:30:33;;;;;;;;;;;;;;;7.79;81.58;94082.72;4999710;28;1225;-68
2022/12/12 05:32:59;;;;;;;;;;;;;;;7.86;80.34;94088.22;5017131;28;1009;-67
2022/12/12 05:35:26;;;;;;;;;;;;;;;8.00;81.86;94085.63;5016885;28;1085;-68
2022/12/12 05:37:52;;;;;;;;;;;;;;;8.10;81.27;94082.81;5016974;28;1054;-67
2022/12/12 05:40:18;;;;;;;;;;;;;;;8.02;79.29;94083.66;5033404;28;1195;-67
2022/12/12 05:42:44;;;;;;;;;;;;;;;8.05;80.11;94094.97;5036586;28;1121;-67
2022/12/12 05:45:11;;;;;;;;;;;;;;;8.17;81.15;94093.59;5019054;28;1967;-67
2022/12/12 05:47:37;;;;;;;;;;;;;;;8.24;78.96;94091.06;5036465;28;1053;-68
2022/12/12 05:50:04;;;;;;;;;;;;;;;8.23;79.91;94084.91;5036463;28;990;-68
2022/12/12 05:52:30;;;;;;;;;;;;;;;8.08;78.55;94084.81;5036580;28;985;-67
2022/12/12 05:54:56;;;;;;;;;;;;;;;7.87;80.61;94074.69;5018818;28;1054;-67
2022/12/12 05:57:22;;;;;;;;;;;;;;;7.86;81.69;94088.22;5018983;28;1054;-67
2022/12/12 05:59:48;;;;;;;;;;;;;;;7.73;80.68;94102.84;5036340;28;978;-67
2022/12/12 06:02:14;;;;;;;;;;;;;;;7.83;82.36;94107.97;5036323;28;1053;-67
2022/12/12 06:04:40;;;;;;;;;;;;;;;7.94;81.11;94104.97;5035855;28;1987;-67
2022/12/12 06:07:07;;;;;;;;;;;;;;;7.96;80.62;94096.81;5036173;28;1072;-68
2022/12/12 06:09:33;;;;;;;;;;;;;;;7.93;80.07;94107.78;5036313;28;1006;-67
2022/12/12 06:11:59;;;;;;;;;;;;;;;8.01;84.05;94105.94;5036292;28;1017;-66
2022/12/12 06:14:25;;;;;;;;;;;;;;;8.07;81.44;94114.25;5036061;28;1113;-68
2022/12/12 06:16:51;;;;;;;;;;;;;;;8.00;83.29;94114.09;5036037;28;946;-68
2022/12/12 06:19:18;;;;;;;;;;;;;;;8.06;81.91;94118.72;5035957;28;978;-66
2022/12/12 06:21:44;;;;;;;;;;;;;;;8.07;82.91;94125.72;5035943;28;1101;-70
2022/12/12 06:24:10;;;;;;;;;;;;;;;8.07;81.71;94132.91;5018622;28;966;-67
2022/12/12 06:26:36;;;;;;;;;;;;;;;7.89;80.52;94144.59;5018276;28;1903;-66
2022/12/12 06:29:03;;;;;;;;;;;;;;;7.46;81.68;94146.63;5035913;28;1065;-66
2022/12/12 06:31:29;;;;;;;;;;;;;;;7.27;83.78;94139.81;5035787;28;1052;-66
2022/12/12 06:33:55;;;;;;;;;;;;;;;7.25;84.86;94136.47;5035157;28;1121;-68
2022/12/12 06:36:23;;;;;;;;;;;;;;;7.47;84.41;94147.44;5035916;28;1022;-66
2022/12/12 06:38:50;;;;;;;;;;;;;;;7.65;83.85;94157.91;5031335;28;1203;-66
2022/12/12 06:41:16;;;;;;;;;;;;;;;7.81;82.79;94164.03;5015960;28;1033;-67
2022/12/12 06:43:42;;;;;;;;;;;;;;;7.99;82.13;94161.19;4998333;28;1050;-65
2022/12/12 06:46:13;;;;;;;;;;;;;;;8.03;82.55;94161.69;5015663;28;2000;-66
2022/12/12 06:48:39;;;;;;;;;;;;;;;8.11;82.86;94155.50;4998144;28;1041;-66
2022/12/12 06:51:06;;;;;;;;;;;;;;;8.07;80.88;94156.84;5015827;28;1005;-66
2022/12/12 06:53:32;;;;;;;;;;;;;;;7.98;79.45;94150.72;5015433;28;1117;-67
2022/12/12 06:55:58;;;;;;;;;;;;;;;7.79;81.52;94170.53;5015618;28;1041;-67
2022/12/12 06:58:25;;;;;;;;;;;;;;;7.76;81.48;94170.88;4998166;28;1055;-67
2022/12/12 07:00:51;;;;;;;;;;;;;;;7.94;79.99;94182.16;4998087;28;986;-68
2022/12/12 07:03:17;;;;;;;;;;;;;;;8.00;80.36;94178.81;5015171;28;1237;-67
2022/12/12 07:05:47;;;;;;;;;;;;;;;8.06;79.95;94179.13;5015188;28;1906;-66
2022/12/12 07:08:14;;;;;;;;;;;;;;;8.11;80.17;94182.13;5015464;28;996;-66
2022/12/12 07:10:40;;;;;;;;;;;;;;;8.16;79.53;94179.81;5015163;28;1236;-66
2022/12/12 07:13:06;;;;;;;;;;;;;;;8.25;79.36;94172.59;5015164;28;1281;-68
2022/12/12 07:15:32;;;;;;;;;;;;;;;8.34;78.20;94179.56;5015107;28;1009;-66
2022/12/12 07:17:58;;;;;;;;;;;;;;;8.26;77.95;94175.09;5014994;28;1085;-66
2022/12/12 07:20:24;;;;;;;;;;;;;;;8.20;78.51;94184.59;5015252;28;1065;-69
2022/12/12 07:22:50;;;;;;;;;;;;;;;8.36;78.73;94190.88;5014976;28;1068;-70
2022/12/12 07:25:16;;;;;;;;;;;;;;;8.32;78.45;94201.03;5015020;28;1903;-69
2022/12/12 07:27:42;;;;;;;;;;;;;;;7.84;80.05;94194.00;5014853;28;1041;-62
2022/12/12 07:30:09;;;;;;;;;;;;;;;8.04;86.29;94200.59;5014941;28;1013;-62
2022/12/12 07:32:35;;;;;;;;;;;;;;;7.95;86.41;94205.13;5014463;28;1629;-68
2022/12/12 07:35:01;;;;;;;;;;;;;;;7.98;85.88;94215.41;5014997;28;1088;-68
2022/12/12 07:37:27;;;;;;;;;;;;;;;7.92;83.79;94210.75;4997428;28;1038;-66
2022/12/12 07:39:53;;;;;;;;;;;;;;;7.91;85.41;94219.75;5014798;28;1215;-63
2022/12/12 07:42:19;;;;;;;;;;;;;;;7.92;82.81;94229.41;5014766;28;1053;-65
2022/12/12 07:44:45;;;;;;;;;;;;;;;7.85;82.60;94227.56;5013975;28;1898;-65
2022/12/12 07:47:11;;;;;;;;;;;;;;;7.78;81.69;94219.44;5014157;28;1110;-69
2022/12/12 07:49:37;;;;;;;;;;;;;;;7.69;81.43;94223.91;5014628;28;986;-66
2022/12/12 07:52:03;;;;;;;;;;;;;;;7.69;82.25;94228.41;5014639;28;967;-65
2022/12/12 07:54:29;;;;;;;;;;;;;;;7.85;82.06;94224.91;5014354;28;1059;-64
2022/12/12 07:56:57;;;;;;;;;;;;;;;7.96;81.04;94229.91;5014498;28;968;-65
2022/12/12 07:59:23;;;;;;;;;;;;;;;7.97;81.11;94232.41;5014327;28;1086;-65
2022/12/12 08:01:49;;;;;;;;;;;;;;;7.99;80.40;94232.22;4996807;28;1029;-63
2022/12/12 08:04:15;;;;;;;;;;;;;;;8.00;80.36;94231.22;5002822;28;1106;-65
2022/12/12 08:06:41;;;;;;;;;;;;;;;8.04;80.47;94234.38;5014075;28;1906;-64
2022/12/12 08:09:08;;;;;;;;;;;;;;;8.06;79.56;94235.88;5014391;28;1018;-66
2022/12/12 08:11:34;;;;;;;;;;;;;;;8.13;79.39;94231.53;5014228;28;986;-65
2022/12/12 08:14:00;;;;;;;;;;;;;;;8.30;79.39;94232.34;5014188;28;1026;-65
2022/12/12 08:16:27;;;;;;;;;;;;;;;8.34;78.34;94232.84;5014030;28;1181;-64
2022/12/12 08:18:54;;;;;;;;;;;;;;;8.36;77.61;94239.66;5014317;28;1009;-65
2022/12/12 08:21:20;;;;;;;;;;;;;;;8.31;78.50;94228.69;5014291;28;1037;-64
2022/12/12 08:23:46;;;;;;;;;;;;;;;8.29;78.30;94235.16;5014080;28;1021;-62
2022/12/12 08:26:14;;;;;;;;;;;;;;;8.28;78.00;94241.50;5013789;28;1910;-63
2022/12/12 08:28:43;;;;;;;;;;;;;;;8.24;78.47;94241.00;5013913;28;1056;-63
2022/12/12 08:31:11;;;;;;;;;;;;;;;8.27;78.91;94240.69;5014164;28;1128;-63
2022/12/12 08:33:37;;;;;;;;;;;;;;;8.37;79.48;94232.50;5013950;28;1129;-64
2022/12/12 08:36:17;;;;;;;;;;;;;;;8.54;78.13;94238.66;5012799;28;973;-63
2022/12/12 08:38:44;;;;;;;;;;;;;;;8.56;77.45;94239.31;5017248;28;1155;-63
2022/12/12 08:41:11;;;;;;;;;;;;;;;8.59;77.45;94238.97;5033425;28;1014;-63
2022/12/12 08:43:38;;;;;;;;;;;;;;;8.65;78.68;94235.63;5033244;28;1054;-64
2022/12/12 08:46:05;;;;;;;;;;;;;;;8.61;77.22;94239.63;5033259;28;2009;-63
2022/12/12 08:48:31;;;;;;;;;;;;;;;8.58;77.69;94245.31;5033457;28;1009;-63
2022/12/12 08:50:57;;;;;;;;;;;;;;;8.69;77.92;94244.09;5033317;28;1038;-63
2022/12/12 08:53:24;;;;;;;;;;;;;;;8.76;77.98;94234.41;5033350;28;1018;-63
2022/12/12 08:55:50;;;;;;;;;;;;;;;8.91;77.85;94254.00;5033259;28;966;-63
2022/12/12 08:58:16;;;;;;;;;;;;;;;8.98;77.26;94243.50;5031750;28;1057;-63
2022/12/12 09:00:42;;;;;;;;;;;;;;;8.95;77.00;94243.81;5033389;28;973;-63
2022/12/12 09:03:08;;;;;;;;;;;;;;;8.77;77.16;94244.91;5033030;28;1198;-64
2022/12/12 09:05:34;;;;;;;;;;;;;;;8.72;78.19;94243.75;5015575;28;1918;-63
2022/12/12 09:08:01;;;;;;;;;;;;;;;8.68;77.72;94243.25;5033205;28;1005;-63
2022/12/12 09:10:27;;;;;;;;;;;;;;;8.67;78.35;94232.75;5033101;28;1057;-64
2022/12/12 09:12:53;;;;;;;;;;;;;;;8.81;78.87;94242.72;5033027;28;1025;-63
2022/12/12 09:15:20;;;;;;;;;;;;;;;8.92;77.88;94247.69;5033011;28;1038;-63
2022/12/12 09:17:46;;;;;;;;;;;;;;;9.03;76.73;94232.28;5033144;28;964;-64
2022/12/12 09:20:12;;;;;;;;;;;;;;;9.14;76.85;94235.44;5033025;28;1109;-63
2022/12/12 09:22:38;;;;;;;;;;;;;;;10.28;72.78;94238.25;5033043;28;1050;-63
2022/12/12 09:25:05;;;;;;;;;;;;;;;10.10;72.13;94230.56;5032853;28;1910;-63
2022/12/12 09:27:31;;;;;;;;;;;;;;;10.53;71.96;94235.38;5032818;28;1109;-63
2022/12/12 09:29:57;;;;;;;;;;;;;;;11.59;68.53;94222.50;5033210;28;977;-64
2022/12/12 09:32:23;;;;;;;;;;;;;;;11.52;68.50;94218.94;5033182;28;966;-64
2022/12/12 09:34:49;;;;;;;;;;;;;;;11.09;70.03;94214.31;5032808;28;1113;-63
2022/12/12 09:37:15;;;;;;;;;;;;;;;10.96;69.45;94213.31;5032941;28;1045;-63
2022/12/12 09:39:42;;;;;;;;;;;;;;;11.14;69.51;94206.56;5021179;28;1155;-64
2022/12/12 09:42:18;;;;;;;;;;;;;;;11.25;69.75;94212.44;5013059;28;1049;-63
2022/12/12 09:44:44;;;;;;;;;;;;;;;12.89;63.55;94213.25;5012946;28;1910;-64
2022/12/12 09:47:14;;;;;;;;;;;;;;;14.71;59.17;94218.81;5013225;28;967;-63
2022/12/12 09:49:48;;;;;;;;;;;;;;;15.39;56.66;94210.34;5012876;28;1055;-63
2022/12/12 09:52:21;;;;;;;;;;;;;;;13.95;60.42;94213.84;5013092;28;978;-63
2022/12/12 09:54:47;;;;;;;;;;;;;;;13.96;59.00;94205.59;5013467;28;1029;-63
2022/12/12 09:57:19;;;;;;;;;;;;;;;15.43;55.57;94208.06;5012918;28;1202;-63
2022/12/12 10:00:00;;;;;;;;;;;;;;;15.13;55.54;94202.38;5012988;28;1050;-63
2022/12/12 10:02:35;;;;;;;;;;;;;;;15.67;54.84;94205.66;5012900;28;1053;-64
2022/12/12 10:05:07;;;;;;;;;;;;;;;17.88;48.51;94200.72;5012658;28;1910;-64
2022/12/12 10:07:39;;;;;;;;;;;;;;;19.41;45.03;94201.94;5013017;28;1042;-64
2022/12/12 10:10:05;;;;;;;;;;;;;;;20.95;43.04;94196.59;5015670;28;1097;-64
2022/12/12 10:12:32;;;;;;;;;;;;;;;22.54;38.87;94207.53;5016334;28;1038;-65
2022/12/12 10:15:00;;;;;;;;;;;;;;;24.20;36.77;94218.38;5016389;28;1054;-64
2022/12/12 10:17:33;;;;;;;;;;;;;;;26.12;34.54;94208.66;5016158;28;1053;-65
2022/12/12 10:20:03;;;;;;;;;;;;;;;27.20;31.93;94222.47;5016169;28;1042;-65
2022/12/12 10:22:33;;;;;;;;;;;;;;;27.90;33.22;94214.97;5016268;28;975;-66
2022/12/12 10:25:19;;;;;;;;;;;;;;;29.73;29.14;94212.53;5016109;28;1996;-65
2022/12/12 10:27:46;;;;;;;;;;;;;;;31.06;26.71;94222.72;5016010;28;958;-66
2022/12/12 10:30:15;;;;;;;;;;;;;;;31.41;25.22;94225.69;5015956;28;1039;-66
2022/12/12 10:33:02;;;;;;;;;;;;;;;30.21;26.04;94234.19;5015871;28;1058;-65
2022/12/12 10:35:44;;;;;;;;;;;;;;;26.82;30.43;94210.47;4998595;28;1050;-65
2022/12/12 10:38:10;;;;;;;;;;;;;;;22.09;35.96;94167.06;5015902;28;1113;-66
2022/12/12 10:40:47;;;;;;;;;;;;;;;19.64;40.42;94150.34;5034687;28;1179;-65
2022/12/12 10:43:16;;;;;;;;;;;;;;;19.48;41.49;94145.69;5035824;28;957;-65
2022/12/12 10:45:50;;;;;;;;;;;;;;;22.47;36.57;94159.81;5035545;28;1998;-65
2022/12/12 10:48:17;;;;;;;;;;;;;;;26.51;30.48;94176.97;5035548;28;1050;-66
2022/12/12 10:50:46;;;;;;;;;;;;;;;28.90;29.21;94182.81;5035327;28;1058;-66
2022/12/12 10:53:12;;;;;;;;;;;;;;;28.21;27.45;94185.16;5035255;28;1037;-65
2022/12/12 10:55:52;;;;;;;;;;;;;;;27.41;28.55;94186.66;5035472;28;1024;-65
2022/12/12 10:58:23;;;;;;;;;;;;;;;24.51;33.05;94160.00;5035422;28;1057;-66
2022/12/12 11:00:49;;;;;;;;;;;;;;;24.00;34.54;94150.88;5035176;28;1312;-65
2022/12/12 11:03:21;;;;;;;;;;;;;;;23.12;35.08;94152.41;5035019;28;1379;-66
2022/12/12 11:05:48;;;;;;;;;;;;;;;21.68;36.53;94145.66;5034909;28;2001;-65
2022/12/12 11:08:20;;;;;;;;;;;;;;;21.15;38.03;94141.72;5035025;28;1101;-65
2022/12/12 11:10:57;;;;;;;;;;;;;;;20.33;39.43;94135.84;5035093;28;1049;-65
2022/12/12 11:13:23;;;;;;;;;;;;;;;21.10;38.04;94136.22;5034974;28;1033;-65
2022/12/12 11:16:11;;;;;;;;;;;;;;;21.96;36.92;94132.91;5034866;28;991;-65
2022/12/12 11:18:37;;;;;;;;;;;;;;;21.44;37.64;94120.66;5035025;28;954;-65
2022/12/12 11:21:05;;;;;;;;;;;;;;;19.85;40.47;94113.63;5034869;28;1050;-65
2022/12/12 11:23:32;;;;;;;;;;;;;;;18.60;42.90;94099.66;5034799;28;968;-65
2022/12/12 11:26:00;;;;;;;;;;;;;;;17.12;46.64;94091.34;5034704;28;1997;-65
2022/12/12 11:28:31;;;;;;;;;;;;;;;16.13;49.03;94069.78;5034654;28;978;-64
2022/12/12 11:31:00;;;;;;;;;;;;;;;15.58;51.55;94084.69;5034595;28;1046;-65
2022/12/12 11:33:37;;;;;;;;;;;;;;;15.19;53.88;94091.13;5034468;28;1042;-64
2022/12/12 11:36:05;;;;;;;;;;;;;;;15.15;53.35;94081.84;5034523;28;1113;-64
2022/12/12 11:38:39;;;;;;;;;;;;;;;15.46;52.87;94085.59;5032349;28;1155;-64
2022/12/12 11:41:07;;;;;;;;;;;;;;;15.37;51.85;94079.66;5014644;28;1006;-64
2022/12/12 11:43:45;;;;;;;;;;;;;;;15.20;54.40;94079.34;5014485;28;1070;-65
2022/12/12 11:46:14;;;;;;;;;;;;;;;14.91;52.85;94081.56;5014700;28;2005;-64
2022/12/12 11:48:55;;;;;;;;;;;;;;;14.41;56.30;94082.09;5014568;28;1046;-64
2022/12/12 11:51:32;;;;;;;;;;;;;;;14.09;54.48;94083.00;5014501;28;1054;-64
2022/12/12 11:53:59;;;;;;;;;;;;;;;13.79;55.08;94078.88;5014386;28;1888;-64
2022/12/12 11:56:38;;;;;;;;;;;;;;;13.94;56.67;94088.56;5014310;28;1042;-65
2022/12/12 11:59:17;;;;;;;;;;;;;;;14.38;56.42;94076.31;5014451;28;966;-64
2022/12/12 12:01:43;;;;;;;;;;;;;;;14.48;55.49;94079.41;5014344;28;1045;-64
2022/12/12 12:07:40;;;;;;;;;;;;;;;14.55;55.32;94066.75;5014474;28;1021;-65
2022/12/12 12:10:12;;;;;;;;;;;;;;;14.64;56.50;94068.22;5014163;28;1046;-65
2022/12/12 12:12:41;;;;;;;;;;;;;;;14.61;55.55;94071.31;5013979;28;1042;-65
2022/12/12 12:15:13;;;;;;;;;;;;;;;14.41;55.65;94081.28;5014276;28;967;-64
2022/12/12 12:17:56;;;;;;;;;;;;;;;14.22;57.58;94086.47;5013993;28;1092;-64
2022/12/12 12:20:35;;;;;;;;;;;;;;;14.09;56.29;94086.50;5014123;28;1175;-64
2022/12/12 12:23:10;;;;;;;;;;;;;;;14.03;57.34;94073.91;4996575;28;1045;-64
2022/12/12 12:25:42;;;;;;;;;;;;;;;13.92;57.46;94074.53;5014026;28;1992;-64
2022/12/12 12:28:26;;;;;;;;;;;;;;;14.06;58.27;94066.25;5013823;28;948;-65
2022/12/12 12:31:08;;;;;;;;;;;;;;;14.22;52.04;94070.34;5013601;28;1204;-63
2022/12/12 12:33:44;;;;;;;;;;;;;;;14.42;49.24;94050.66;5013677;28;1054;-64
2022/12/12 12:36:21;;;;;;;;;;;;;;;14.51;46.87;94053.94;5014046;28;1074;-64
2022/12/12 12:38:53;;;;;;;;;;;;;;;14.30;48.60;94049.66;5018008;28;1211;-64
2022/12/12 12:41:27;;;;;;;;;;;;;;;14.04;44.95;94057.56;5016005;28;1104;-65
2022/12/12 12:44:06;;;;;;;;;;;;;;;13.95;46.84;94058.00;5033407;28;980;-65
2022/12/12 12:46:41;;;;;;;;;;;;;;;13.92;48.83;94045.78;5033538;28;1950;-64
2022/12/12 12:49:11;;;;;;;;;;;;;;;13.85;47.33;94039.63;5033563;28;1017;-64
2022/12/12 12:51:39;;;;;;;;;;;;;;;13.77;45.67;94047.88;5033201;28;907;-64
2022/12/12 12:54:05;;;;;;;;;;;;;;;13.74;44.13;94042.94;5033330;28;1026;-64
2022/12/12 12:56:33;;;;;;;;;;;;;;;13.70;44.04;94050.56;5015638;28;1054;-64
2022/12/12 12:59:01;;;;;;;;;;;;;;;13.62;42.70;94042.72;5033310;28;1017;-63
2022/12/12 13:01:31;;;;;;;;;;;;;;;13.58;45.32;94030.72;5033124;28;1047;-63
2022/12/12 13:04:04;;;;;;;;;;;;;;;13.55;44.62;94023.09;5033307;28;1060;-65
2022/12/12 13:06:50;;;;;;;;;;;;;;;13.51;44.86;94019.16;5032804;28;1898;-64
2022/12/12 13:09:27;;;;;;;;;;;;;;;13.34;44.37;94026.81;5015516;28;1311;-64
2022/12/12 13:11:58;;;;;;;;;;;;;;;13.29;48.61;94009.41;5033127;28;1141;-64
2022/12/12 13:14:56;;;;;;;;;;;;;;;13.17;51.07;94019.13;5033225;28;994;-64
2022/12/12 13:17:34;;;;;;;;;;;;;;;13.04;48.96;94014.56;4989492;28;1123;-64
2022/12/12 13:20:02;;;;;;;;;;;;;;;12.99;50.70;94006.28;5033090;28;1074;-64
2022/12/12 13:22:31;;;;;;;;;;;;;;;13.02;50.58;94010.44;5032955;28;1330;-63
2022/12/12 13:25:18;;;;;;;;;;;;;;;12.92;47.63;94005.47;5033022;28;1910;-64
2022/12/12 13:27:46;;;;;;;;;;;;;;;12.94;49.12;94008.78;5032895;28;970;-64
2022/12/12 13:30:20;;;;;;;;;;;;;;;12.97;51.68;94002.97;5032927;28;1019;-64
2022/12/12 13:32:49;;;;;;;;;;;;;;;12.97;52.33;93997.63;5033058;28;990;-64
2022/12/12 13:35:21;;;;;;;;;;;;;;;12.89;50.64;94003.19;5032898;28;1097;-64
2022/12/12 13:37:49;;;;;;;;;;;;;;;12.83;51.50;94018.22;5032797;28;1105;-64